HK36E SCDA-SCAT
Flight info
| Callsign | HK36E |
|---|---|
| Flight time | 1h 50m |
| Altitude | 29000 |
| Route | REBOL4B REBOL FAG DOVRI PUNSO DOVKA DOVKA3A |
| Aircraft | BE20/M-SDFGRWY/LB1 |
Departure
| Time | 2026-05-07 19:23 |
|---|---|
| Airport | Diego Aracena International Airport (SCDA) |
Arrival
| Time | 2026-05-07 21:14 |
|---|---|
| Airport | Desierto de Atacama Airport (SCAT) |
| Time | Latitude | Longitude | Altitude | Speed | Heading |
|---|---|---|---|---|---|
| 2026-05-07 19:09 | -20.53624 | -70.18493 | 126 ft | 0 kts | 123° |
| 2026-05-07 19:20 | -20.53623 | -70.18463 | 125 ft | 8 kts | 52° |
| 2026-05-07 19:20 | -20.53547 | -70.18409 | 122 ft | 19 kts | 33° |
| 2026-05-07 19:20 | -20.53414 | -70.18319 | 118 ft | 20 kts | 32° |
| 2026-05-07 19:21 | -20.53302 | -70.18294 | 117 ft | 20 kts | 2° |
| 2026-05-07 19:21 | -20.53185 | -70.18289 | 117 ft | 18 kts | 7° |
| 2026-05-07 19:21 | -20.53090 | -70.18282 | 114 ft | 15 kts | 4° |
| 2026-05-07 19:21 | -20.52955 | -70.18275 | 113 ft | 21 kts | 4° |
| 2026-05-07 19:22 | -20.52832 | -70.18216 | 110 ft | 14 kts | 70° |
| 2026-05-07 19:22 | -20.52829 | -70.18156 | 110 ft | 9 kts | 95° |
| 2026-05-07 19:22 | -20.52845 | -70.18097 | 109 ft | 7 kts | 164° |
| 2026-05-07 19:22 | -20.52946 | -70.18100 | 113 ft | 36 kts | 183° |
| 2026-05-07 19:23 | -20.53409 | -70.18125 | 122 ft | 95 kts | 185° |
| 2026-05-07 19:23 | -20.54198 | -70.18161 | 288 ft | 129 kts | 185° |
| 2026-05-07 19:23 | -20.55140 | -70.18200 | 751 ft | 143 kts | 185° |
| 2026-05-07 19:23 | -20.56178 | -70.18304 | 1090 ft | 166 kts | 186° |
| 2026-05-07 19:24 | -20.57332 | -70.18337 | 1692 ft | 156 kts | 184° |
| 2026-05-07 19:24 | -20.58377 | -70.18379 | 2405 ft | 148 kts | 186° |
| 2026-05-07 19:24 | -20.59423 | -70.18435 | 2887 ft | 153 kts | 184° |
| 2026-05-07 19:24 | -20.60500 | -70.18495 | 3393 ft | 155 kts | 184° |
| 2026-05-07 19:25 | -20.61576 | -70.18556 | 3917 ft | 155 kts | 184° |
| 2026-05-07 19:25 | -20.62634 | -70.18615 | 4440 ft | 154 kts | 183° |
| 2026-05-07 19:25 | -20.63720 | -70.18676 | 4903 ft | 158 kts | 183° |
| 2026-05-07 19:25 | -20.64824 | -70.18738 | 5379 ft | 160 kts | 184° |
| 2026-05-07 19:26 | -20.65941 | -70.18801 | 5855 ft | 161 kts | 183° |
| 2026-05-07 19:26 | -20.67058 | -70.18910 | 6317 ft | 163 kts | 186° |
| 2026-05-07 19:26 | -20.68190 | -70.19020 | 6774 ft | 164 kts | 185° |
| 2026-05-07 19:26 | -20.69331 | -70.19129 | 7232 ft | 165 kts | 185° |
| 2026-05-07 19:27 | -20.70480 | -70.19244 | 7696 ft | 167 kts | 185° |
| 2026-05-07 19:27 | -20.71637 | -70.19362 | 8185 ft | 167 kts | 185° |
| 2026-05-07 19:27 | -20.72801 | -70.19480 | 8662 ft | 169 kts | 185° |
| 2026-05-07 19:27 | -20.73978 | -70.19600 | 9132 ft | 171 kts | 185° |
| 2026-05-07 19:28 | -20.75172 | -70.19721 | 9600 ft | 173 kts | 185° |
| 2026-05-07 19:28 | -20.76380 | -70.19845 | 10063 ft | 175 kts | 186° |
| 2026-05-07 19:28 | -20.77596 | -70.19969 | 10522 ft | 175 kts | 186° |
| 2026-05-07 19:28 | -20.78807 | -70.20092 | 10989 ft | 175 kts | 187° |
| 2026-05-07 19:29 | -20.80014 | -70.20214 | 11493 ft | 173 kts | 188° |
| 2026-05-07 19:29 | -20.81215 | -70.20338 | 11954 ft | 175 kts | 188° |
| 2026-05-07 19:29 | -20.82420 | -70.20460 | 12415 ft | 174 kts | 188° |
| 2026-05-07 19:29 | -20.83627 | -70.20583 | 12819 ft | 175 kts | 188° |
| 2026-05-07 19:30 | -20.84835 | -70.20707 | 13219 ft | 174 kts | 189° |
| 2026-05-07 19:30 | -20.86037 | -70.20829 | 13699 ft | 173 kts | 189° |
| 2026-05-07 19:30 | -20.87219 | -70.20950 | 14157 ft | 173 kts | 189° |
| 2026-05-07 19:30 | -20.88405 | -70.21070 | 14627 ft | 171 kts | 189° |
| 2026-05-07 19:31 | -20.89592 | -70.21192 | 15057 ft | 172 kts | 189° |
| 2026-05-07 19:31 | -20.90771 | -70.21312 | 15524 ft | 169 kts | 189° |
| 2026-05-07 19:31 | -20.91946 | -70.21432 | 15966 ft | 170 kts | 189° |
| 2026-05-07 19:31 | -20.93118 | -70.21551 | 16431 ft | 168 kts | 189° |
| 2026-05-07 19:32 | -20.94281 | -70.21670 | 16872 ft | 168 kts | 189° |
| 2026-05-07 19:32 | -20.95445 | -70.21789 | 17331 ft | 167 kts | 189° |
| 2026-05-07 19:32 | -20.96597 | -70.21907 | 17777 ft | 167 kts | 189° |
| 2026-05-07 19:32 | -20.97753 | -70.22025 | 18234 ft | 166 kts | 189° |
| 2026-05-07 19:33 | -20.98895 | -70.22142 | 18647 ft | 165 kts | 189° |
| 2026-05-07 19:33 | -21.00041 | -70.22259 | 19010 ft | 166 kts | 189° |
| 2026-05-07 19:33 | -21.01185 | -70.22375 | 19412 ft | 164 kts | 189° |
| 2026-05-07 19:33 | -21.02324 | -70.22492 | 19819 ft | 165 kts | 189° |
| 2026-05-07 19:34 | -21.03465 | -70.22609 | 20220 ft | 165 kts | 190° |
| 2026-05-07 19:34 | -21.04599 | -70.22725 | 20648 ft | 164 kts | 190° |
| 2026-05-07 19:34 | -21.05735 | -70.22841 | 21032 ft | 165 kts | 190° |
| 2026-05-07 19:34 | -21.06870 | -70.22957 | 21463 ft | 163 kts | 190° |
| 2026-05-07 19:35 | -21.07998 | -70.23068 | 21851 ft | 164 kts | 190° |
| 2026-05-07 19:35 | -21.09135 | -70.23173 | 22240 ft | 163 kts | 190° |
| 2026-05-07 19:35 | -21.10260 | -70.23277 | 22658 ft | 162 kts | 190° |
| 2026-05-07 19:35 | -21.11393 | -70.23384 | 23015 ft | 165 kts | 190° |
| 2026-05-07 19:36 | -21.12545 | -70.23492 | 23384 ft | 167 kts | 191° |
| 2026-05-07 19:36 | -21.13708 | -70.23601 | 23731 ft | 169 kts | 191° |
| 2026-05-07 19:36 | -21.14868 | -70.23710 | 24040 ft | 170 kts | 191° |
| 2026-05-07 19:36 | -21.16050 | -70.23821 | 24351 ft | 171 kts | 192° |
| 2026-05-07 19:37 | -21.17239 | -70.23933 | 24668 ft | 172 kts | 193° |
| 2026-05-07 19:37 | -21.18430 | -70.24045 | 24985 ft | 172 kts | 193° |
| 2026-05-07 19:37 | -21.19625 | -70.24157 | 25292 ft | 174 kts | 194° |
| 2026-05-07 19:37 | -21.20848 | -70.24274 | 25531 ft | 179 kts | 194° |
| 2026-05-07 19:38 | -21.22101 | -70.24392 | 25775 ft | 183 kts | 194° |
| 2026-05-07 19:38 | -21.23383 | -70.24512 | 26025 ft | 187 kts | 194° |
| 2026-05-07 19:38 | -21.24686 | -70.24635 | 26276 ft | 190 kts | 195° |
| 2026-05-07 19:38 | -21.26010 | -70.24759 | 26543 ft | 192 kts | 194° |
| 2026-05-07 19:39 | -21.27350 | -70.24884 | 26797 ft | 194 kts | 194° |
| 2026-05-07 19:39 | -21.28704 | -70.25011 | 27051 ft | 196 kts | 194° |
| 2026-05-07 19:39 | -21.30069 | -70.25140 | 27304 ft | 198 kts | 195° |
| 2026-05-07 19:39 | -21.31443 | -70.25269 | 27560 ft | 199 kts | 195° |
| 2026-05-07 19:40 | -21.32825 | -70.25399 | 27812 ft | 200 kts | 195° |
| 2026-05-07 19:40 | -21.34210 | -70.25529 | 28068 ft | 200 kts | 196° |
| 2026-05-07 19:40 | -21.35599 | -70.25660 | 28324 ft | 200 kts | 196° |
| 2026-05-07 19:40 | -21.36990 | -70.25790 | 28582 ft | 201 kts | 197° |
| 2026-05-07 19:41 | -21.38379 | -70.25921 | 28835 ft | 200 kts | 197° |
| 2026-05-07 19:41 | -21.39770 | -70.26053 | 29026 ft | 204 kts | 197° |
| 2026-05-07 19:41 | -21.41218 | -70.26195 | 29032 ft | 214 kts | 197° |
| 2026-05-07 19:41 | -21.42726 | -70.26339 | 29036 ft | 222 kts | 196° |
| 2026-05-07 19:42 | -21.44293 | -70.26484 | 29038 ft | 229 kts | 195° |
| 2026-05-07 19:42 | -21.45901 | -70.26634 | 29037 ft | 235 kts | 195° |
| 2026-05-07 19:42 | -21.47519 | -70.26786 | 29039 ft | 239 kts | 195° |
| 2026-05-07 19:42 | -21.49187 | -70.26943 | 29033 ft | 242 kts | 195° |
| 2026-05-07 19:43 | -21.50873 | -70.27101 | 29037 ft | 244 kts | 195° |
| 2026-05-07 19:43 | -21.52577 | -70.27261 | 29032 ft | 247 kts | 195° |
| 2026-05-07 19:43 | -21.54291 | -70.27423 | 29032 ft | 248 kts | 195° |
| 2026-05-07 19:43 | -21.56014 | -70.27586 | 29035 ft | 249 kts | 195° |
| 2026-05-07 19:44 | -21.57743 | -70.27749 | 29038 ft | 250 kts | 192° |
| 2026-05-07 19:44 | -21.59480 | -70.27912 | 29035 ft | 251 kts | 192° |
| 2026-05-07 19:44 | -21.61221 | -70.28077 | 29034 ft | 251 kts | 192° |
| 2026-05-07 19:44 | -21.62965 | -70.28242 | 29036 ft | 252 kts | 192° |
| 2026-05-07 19:45 | -21.64711 | -70.28407 | 29034 ft | 252 kts | 192° |
| 2026-05-07 19:45 | -21.66460 | -70.28572 | 29035 ft | 252 kts | 192° |
| 2026-05-07 19:45 | -21.68210 | -70.28737 | 29033 ft | 253 kts | 192° |
| 2026-05-07 19:45 | -21.69961 | -70.28903 | 29034 ft | 253 kts | 192° |
| 2026-05-07 19:46 | -21.71712 | -70.29069 | 29035 ft | 253 kts | 192° |
| 2026-05-07 19:46 | -21.73467 | -70.29235 | 29035 ft | 253 kts | 192° |
| 2026-05-07 19:46 | -21.75221 | -70.29401 | 29036 ft | 253 kts | 192° |
| 2026-05-07 19:46 | -21.76974 | -70.29567 | 29030 ft | 253 kts | 192° |
| 2026-05-07 19:47 | -21.78727 | -70.29733 | 29031 ft | 253 kts | 192° |
| 2026-05-07 19:47 | -21.80484 | -70.29899 | 29031 ft | 253 kts | 192° |
| 2026-05-07 19:47 | -21.82238 | -70.30066 | 29031 ft | 253 kts | 192° |
| 2026-05-07 19:47 | -21.83993 | -70.30232 | 29029 ft | 253 kts | 192° |
| 2026-05-07 19:48 | -21.85747 | -70.30398 | 29030 ft | 253 kts | 192° |
| 2026-05-07 19:48 | -21.87502 | -70.30565 | 29030 ft | 253 kts | 192° |
| 2026-05-07 19:48 | -21.89256 | -70.30731 | 29029 ft | 253 kts | 189° |
| 2026-05-07 19:48 | -21.91012 | -70.30897 | 29028 ft | 253 kts | 189° |
| 2026-05-07 19:49 | -21.92768 | -70.31064 | 29029 ft | 253 kts | 189° |
| 2026-05-07 19:49 | -21.94501 | -70.31216 | 29028 ft | 253 kts | 189° |
| 2026-05-07 19:49 | -21.96259 | -70.31367 | 29029 ft | 253 kts | 189° |
| 2026-05-07 19:49 | -21.98016 | -70.31521 | 29029 ft | 253 kts | 189° |
| 2026-05-07 19:50 | -21.99774 | -70.31677 | 29029 ft | 253 kts | 189° |
| 2026-05-07 19:50 | -22.01529 | -70.31833 | 29027 ft | 253 kts | 189° |
| 2026-05-07 19:50 | -22.03286 | -70.31988 | 29026 ft | 253 kts | 189° |
| 2026-05-07 19:50 | -22.05043 | -70.32142 | 29027 ft | 253 kts | 189° |
| 2026-05-07 19:51 | -22.06800 | -70.32297 | 29027 ft | 253 kts | 189° |
| 2026-05-07 19:51 | -22.08557 | -70.32453 | 29026 ft | 253 kts | 189° |
| 2026-05-07 19:51 | -22.10314 | -70.32608 | 29027 ft | 253 kts | 189° |
| 2026-05-07 19:51 | -22.12070 | -70.32763 | 29026 ft | 253 kts | 189° |
| 2026-05-07 19:52 | -22.13828 | -70.32919 | 29030 ft | 253 kts | 189° |
| 2026-05-07 19:52 | -22.15585 | -70.33074 | 29029 ft | 253 kts | 189° |
| 2026-05-07 19:52 | -22.17344 | -70.33229 | 29030 ft | 253 kts | 189° |
| 2026-05-07 19:52 | -22.19100 | -70.33385 | 29028 ft | 253 kts | 189° |
| 2026-05-07 19:53 | -22.20858 | -70.33540 | 29023 ft | 254 kts | 189° |
| 2026-05-07 19:53 | -22.22617 | -70.33696 | 29025 ft | 253 kts | 189° |
| 2026-05-07 19:53 | -22.24375 | -70.33851 | 29025 ft | 253 kts | 189° |
| 2026-05-07 19:53 | -22.26131 | -70.34007 | 29028 ft | 253 kts | 189° |
| 2026-05-07 19:54 | -22.27886 | -70.34162 | 29028 ft | 253 kts | 189° |
| 2026-05-07 19:54 | -22.29641 | -70.34318 | 29028 ft | 253 kts | 189° |
| 2026-05-07 19:54 | -22.31371 | -70.34471 | 29028 ft | 253 kts | 189° |
| 2026-05-07 19:54 | -22.33124 | -70.34626 | 29028 ft | 253 kts | 189° |
| 2026-05-07 19:55 | -22.34877 | -70.34782 | 29027 ft | 253 kts | 189° |
| 2026-05-07 19:55 | -22.36631 | -70.34937 | 29027 ft | 253 kts | 189° |
| 2026-05-07 19:55 | -22.38383 | -70.35093 | 29028 ft | 253 kts | 189° |
| 2026-05-07 19:55 | -22.40137 | -70.35248 | 29030 ft | 253 kts | 189° |
| 2026-05-07 19:56 | -22.41890 | -70.35404 | 29030 ft | 253 kts | 189° |
| 2026-05-07 19:56 | -22.43641 | -70.35559 | 29030 ft | 253 kts | 189° |
| 2026-05-07 19:56 | -22.45395 | -70.35715 | 29030 ft | 253 kts | 189° |
| 2026-05-07 19:56 | -22.47147 | -70.35871 | 29029 ft | 253 kts | 189° |
| 2026-05-07 19:57 | -22.48898 | -70.36026 | 29030 ft | 253 kts | 189° |
| 2026-05-07 19:57 | -22.50648 | -70.36182 | 29030 ft | 253 kts | 189° |
| 2026-05-07 19:57 | -22.52401 | -70.36338 | 29035 ft | 252 kts | 188° |
| 2026-05-07 19:57 | -22.54150 | -70.36493 | 29033 ft | 252 kts | 188° |
| 2026-05-07 19:58 | -22.55898 | -70.36648 | 29033 ft | 252 kts | 188° |
| 2026-05-07 19:58 | -22.57644 | -70.36804 | 29033 ft | 252 kts | 188° |
| 2026-05-07 19:58 | -22.59391 | -70.36959 | 29032 ft | 252 kts | 188° |
| 2026-05-07 19:58 | -22.61135 | -70.37114 | 29032 ft | 251 kts | 188° |
| 2026-05-07 19:59 | -22.62879 | -70.37270 | 29032 ft | 251 kts | 188° |
| 2026-05-07 19:59 | -22.64622 | -70.37425 | 29032 ft | 251 kts | 188° |
| 2026-05-07 19:59 | -22.66365 | -70.37580 | 29032 ft | 251 kts | 188° |
| 2026-05-07 19:59 | -22.68108 | -70.37735 | 29032 ft | 251 kts | 188° |
| 2026-05-07 20:00 | -22.69849 | -70.37890 | 29031 ft | 251 kts | 188° |
| 2026-05-07 20:00 | -22.71591 | -70.38045 | 29031 ft | 251 kts | 188° |
| 2026-05-07 20:00 | -22.73335 | -70.38201 | 29031 ft | 251 kts | 188° |
| 2026-05-07 20:00 | -22.75077 | -70.38356 | 29032 ft | 251 kts | 188° |
| 2026-05-07 20:01 | -22.76819 | -70.38512 | 29035 ft | 251 kts | 188° |
| 2026-05-07 20:01 | -22.78561 | -70.38667 | 29035 ft | 251 kts | 188° |
| 2026-05-07 20:01 | -22.80276 | -70.38820 | 29035 ft | 251 kts | 188° |
| 2026-05-07 20:01 | -22.82022 | -70.38976 | 29035 ft | 251 kts | 188° |
| 2026-05-07 20:02 | -22.83759 | -70.39131 | 29037 ft | 250 kts | 188° |
| 2026-05-07 20:02 | -22.85493 | -70.39286 | 29035 ft | 250 kts | 188° |
| 2026-05-07 20:02 | -22.87222 | -70.39440 | 29035 ft | 249 kts | 188° |
| 2026-05-07 20:02 | -22.88948 | -70.39594 | 29034 ft | 249 kts | 188° |
| 2026-05-07 20:03 | -22.90670 | -70.39748 | 29034 ft | 248 kts | 188° |
| 2026-05-07 20:03 | -22.92394 | -70.39903 | 29030 ft | 248 kts | 188° |
| 2026-05-07 20:03 | -22.94113 | -70.40056 | 29039 ft | 248 kts | 188° |
| 2026-05-07 20:03 | -22.95832 | -70.40210 | 29037 ft | 248 kts | 188° |
| 2026-05-07 20:04 | -22.97549 | -70.40364 | 29032 ft | 248 kts | 188° |
| 2026-05-07 20:04 | -22.99267 | -70.40517 | 29035 ft | 248 kts | 188° |
| 2026-05-07 20:04 | -23.00405 | -70.40619 | 29032 ft | 248 kts | 188° |
| 2026-05-07 20:04 | -23.02121 | -70.40773 | 29033 ft | 248 kts | 188° |
| 2026-05-07 20:05 | -23.03836 | -70.40927 | 29038 ft | 248 kts | 188° |
| 2026-05-07 20:05 | -23.05553 | -70.41080 | 29031 ft | 247 kts | 188° |
| 2026-05-07 20:05 | -23.07270 | -70.41234 | 29034 ft | 247 kts | 188° |
| 2026-05-07 20:05 | -23.08986 | -70.41388 | 29034 ft | 247 kts | 188° |
| 2026-05-07 20:06 | -23.10700 | -70.41542 | 29036 ft | 247 kts | 188° |
| 2026-05-07 20:06 | -23.12417 | -70.41696 | 29039 ft | 247 kts | 188° |
| 2026-05-07 20:06 | -23.14129 | -70.41849 | 29039 ft | 246 kts | 187° |
| 2026-05-07 20:06 | -23.15830 | -70.42001 | 29036 ft | 245 kts | 187° |
| 2026-05-07 20:07 | -23.17519 | -70.42153 | 29030 ft | 243 kts | 187° |
| 2026-05-07 20:07 | -23.19203 | -70.42304 | 29029 ft | 242 kts | 187° |
| 2026-05-07 20:07 | -23.20882 | -70.42455 | 29024 ft | 242 kts | 187° |
| 2026-05-07 20:07 | -23.22554 | -70.42605 | 29025 ft | 241 kts | 187° |
| 2026-05-07 20:08 | -23.24227 | -70.42755 | 29024 ft | 241 kts | 187° |
| 2026-05-07 20:08 | -23.25893 | -70.42905 | 29017 ft | 240 kts | 187° |
| 2026-05-07 20:08 | -23.27560 | -70.43055 | 29018 ft | 240 kts | 187° |
| 2026-05-07 20:08 | -23.29225 | -70.43205 | 29022 ft | 240 kts | 187° |
| 2026-05-07 20:09 | -23.30889 | -70.43354 | 29025 ft | 240 kts | 187° |
| 2026-05-07 20:09 | -23.32554 | -70.43504 | 29016 ft | 240 kts | 187° |
| 2026-05-07 20:09 | -23.34195 | -70.43652 | 29015 ft | 240 kts | 187° |
| 2026-05-07 20:10 | -23.37519 | -70.43951 | 29015 ft | 240 kts | 187° |
| 2026-05-07 20:10 | -23.39180 | -70.44100 | 29014 ft | 240 kts | 187° |
| 2026-05-07 20:10 | -23.40842 | -70.44250 | 29018 ft | 239 kts | 187° |
| 2026-05-07 20:10 | -23.42502 | -70.44400 | 29019 ft | 240 kts | 187° |
| 2026-05-07 20:11 | -23.44164 | -70.44549 | 29036 ft | 240 kts | 187° |
| 2026-05-07 20:11 | -23.45825 | -70.44699 | 29027 ft | 239 kts | 187° |
| 2026-05-07 20:11 | -23.47480 | -70.44847 | 29026 ft | 238 kts | 187° |
| 2026-05-07 20:11 | -23.49131 | -70.44984 | 29021 ft | 238 kts | 187° |
| 2026-05-07 20:12 | -23.50779 | -70.45119 | 29021 ft | 237 kts | 187° |
| 2026-05-07 20:12 | -23.52422 | -70.45256 | 29020 ft | 237 kts | 187° |
| 2026-05-07 20:12 | -23.54063 | -70.45394 | 29018 ft | 236 kts | 187° |
| 2026-05-07 20:12 | -23.55701 | -70.45532 | 29021 ft | 236 kts | 187° |
| 2026-05-07 20:13 | -23.57337 | -70.45668 | 29020 ft | 236 kts | 187° |
| 2026-05-07 20:13 | -23.58972 | -70.45806 | 29019 ft | 236 kts | 187° |
| 2026-05-07 20:13 | -23.60605 | -70.45943 | 29020 ft | 235 kts | 187° |
| 2026-05-07 20:13 | -23.62239 | -70.46080 | 29019 ft | 235 kts | 187° |
| 2026-05-07 20:14 | -23.63872 | -70.46217 | 29019 ft | 235 kts | 187° |
| 2026-05-07 20:14 | -23.65505 | -70.46354 | 29019 ft | 235 kts | 187° |
| 2026-05-07 20:14 | -23.67137 | -70.46491 | 29019 ft | 235 kts | 187° |
| 2026-05-07 20:14 | -23.68747 | -70.46626 | 29020 ft | 235 kts | 187° |
| 2026-05-07 20:15 | -23.70378 | -70.46763 | 29020 ft | 235 kts | 187° |
| 2026-05-07 20:15 | -23.72009 | -70.46900 | 29020 ft | 235 kts | 187° |
| 2026-05-07 20:15 | -23.73644 | -70.47037 | 29021 ft | 235 kts | 187° |
| 2026-05-07 20:15 | -23.75277 | -70.47175 | 29031 ft | 235 kts | 187° |
| 2026-05-07 20:16 | -23.76904 | -70.47311 | 29035 ft | 234 kts | 187° |
| 2026-05-07 20:16 | -23.78527 | -70.47448 | 29034 ft | 233 kts | 187° |
| 2026-05-07 20:16 | -23.80137 | -70.47583 | 29035 ft | 231 kts | 187° |
| 2026-05-07 20:16 | -23.81742 | -70.47718 | 29031 ft | 232 kts | 187° |
| 2026-05-07 20:17 | -23.83351 | -70.47854 | 29033 ft | 232 kts | 187° |
| 2026-05-07 20:17 | -23.84961 | -70.47989 | 29032 ft | 232 kts | 187° |
| 2026-05-07 20:17 | -23.86573 | -70.48125 | 29034 ft | 233 kts | 187° |
| 2026-05-07 20:17 | -23.88190 | -70.48261 | 29032 ft | 233 kts | 187° |
| 2026-05-07 20:18 | -23.89809 | -70.48397 | 29032 ft | 233 kts | 187° |
| 2026-05-07 20:18 | -23.91428 | -70.48534 | 29033 ft | 234 kts | 187° |
| 2026-05-07 20:18 | -23.93046 | -70.48670 | 29031 ft | 233 kts | 187° |
| 2026-05-07 20:18 | -23.94663 | -70.48806 | 29035 ft | 233 kts | 187° |
| 2026-05-07 20:19 | -23.96279 | -70.48943 | 29034 ft | 233 kts | 187° |
| 2026-05-07 20:19 | -23.97897 | -70.49079 | 29036 ft | 234 kts | 187° |
| 2026-05-07 20:19 | -23.99495 | -70.49214 | 29038 ft | 234 kts | 187° |
| 2026-05-07 20:19 | -24.01115 | -70.49351 | 29037 ft | 233 kts | 187° |
| 2026-05-07 20:20 | -24.02735 | -70.49487 | 29038 ft | 234 kts | 187° |
| 2026-05-07 20:20 | -24.04356 | -70.49627 | 29030 ft | 234 kts | 187° |
| 2026-05-07 20:20 | -24.05981 | -70.49762 | 29030 ft | 234 kts | 187° |
| 2026-05-07 20:20 | -24.07611 | -70.49898 | 29031 ft | 235 kts | 187° |
| 2026-05-07 20:21 | -24.09243 | -70.50037 | 29028 ft | 235 kts | 187° |
| 2026-05-07 20:21 | -24.10873 | -70.50175 | 29031 ft | 235 kts | 187° |
| 2026-05-07 20:21 | -24.12499 | -70.50312 | 29033 ft | 234 kts | 187° |
| 2026-05-07 20:21 | -24.14123 | -70.50450 | 29030 ft | 234 kts | 187° |
| 2026-05-07 20:22 | -24.15744 | -70.50587 | 29033 ft | 234 kts | 187° |
| 2026-05-07 20:22 | -24.17372 | -70.50724 | 29030 ft | 234 kts | 187° |
| 2026-05-07 20:22 | -24.18992 | -70.50861 | 29031 ft | 233 kts | 187° |
| 2026-05-07 20:22 | -24.20615 | -70.50999 | 29027 ft | 234 kts | 187° |
| 2026-05-07 20:23 | -24.22231 | -70.51135 | 29028 ft | 233 kts | 187° |
| 2026-05-07 20:23 | -24.23853 | -70.51273 | 29032 ft | 234 kts | 187° |
| 2026-05-07 20:23 | -24.25474 | -70.51410 | 29025 ft | 234 kts | 187° |
| 2026-05-07 20:23 | -24.27075 | -70.51546 | 29030 ft | 234 kts | 187° |
| 2026-05-07 20:24 | -24.28697 | -70.51683 | 29026 ft | 234 kts | 187° |
| 2026-05-07 20:24 | -24.30317 | -70.51821 | 29031 ft | 234 kts | 187° |
| 2026-05-07 20:24 | -24.31940 | -70.51958 | 29029 ft | 234 kts | 187° |
| 2026-05-07 20:24 | -24.33562 | -70.52096 | 29029 ft | 234 kts | 187° |
| 2026-05-07 20:25 | -24.35191 | -70.52234 | 29058 ft | 235 kts | 187° |
| 2026-05-07 20:25 | -24.36817 | -70.52372 | 29041 ft | 233 kts | 187° |
| 2026-05-07 20:25 | -24.38433 | -70.52509 | 29050 ft | 232 kts | 188° |
| 2026-05-07 20:25 | -24.40049 | -70.52647 | 29040 ft | 233 kts | 187° |
| 2026-05-07 20:26 | -24.41667 | -70.52783 | 29034 ft | 233 kts | 187° |
| 2026-05-07 20:26 | -24.43285 | -70.52921 | 29030 ft | 233 kts | 187° |
| 2026-05-07 20:26 | -24.44902 | -70.53058 | 29031 ft | 232 kts | 188° |
| 2026-05-07 20:26 | -24.46511 | -70.53195 | 29035 ft | 232 kts | 188° |
| 2026-05-07 20:27 | -24.48118 | -70.53332 | 29040 ft | 230 kts | 187° |
| 2026-05-07 20:27 | -24.49719 | -70.53468 | 29042 ft | 231 kts | 187° |
| 2026-05-07 20:27 | -24.51325 | -70.53605 | 29031 ft | 231 kts | 187° |
| 2026-05-07 20:27 | -24.52910 | -70.53737 | 29043 ft | 227 kts | 187° |
| 2026-05-07 20:28 | -24.54487 | -70.53872 | 29050 ft | 228 kts | 187° |
| 2026-05-07 20:28 | -24.56075 | -70.54010 | 29048 ft | 230 kts | 187° |
| 2026-05-07 20:28 | -24.57675 | -70.54146 | 29046 ft | 232 kts | 187° |
| 2026-05-07 20:28 | -24.59288 | -70.54283 | 29051 ft | 233 kts | 187° |
| 2026-05-07 20:29 | -24.60906 | -70.54421 | 29051 ft | 233 kts | 187° |
| 2026-05-07 20:29 | -24.62523 | -70.54559 | 29052 ft | 233 kts | 187° |
| 2026-05-07 20:29 | -24.64149 | -70.54697 | 29054 ft | 235 kts | 187° |
| 2026-05-07 20:29 | -24.65785 | -70.54833 | 29048 ft | 237 kts | 187° |
| 2026-05-07 20:30 | -24.67424 | -70.54976 | 29049 ft | 236 kts | 187° |
| 2026-05-07 20:30 | -24.69067 | -70.55118 | 29045 ft | 237 kts | 187° |
| 2026-05-07 20:30 | -24.70708 | -70.55256 | 29043 ft | 236 kts | 187° |
| 2026-05-07 20:30 | -24.72326 | -70.55394 | 29044 ft | 236 kts | 187° |
| 2026-05-07 20:31 | -24.73960 | -70.55533 | 29047 ft | 236 kts | 187° |
| 2026-05-07 20:31 | -24.75594 | -70.55673 | 29046 ft | 235 kts | 187° |
| 2026-05-07 20:31 | -24.77226 | -70.55812 | 29044 ft | 235 kts | 187° |
| 2026-05-07 20:31 | -24.78854 | -70.55951 | 29043 ft | 234 kts | 187° |
| 2026-05-07 20:32 | -24.80479 | -70.56090 | 29042 ft | 234 kts | 187° |
| 2026-05-07 20:32 | -24.82102 | -70.56229 | 29041 ft | 234 kts | 187° |
| 2026-05-07 20:32 | -24.83724 | -70.56368 | 29043 ft | 234 kts | 187° |
| 2026-05-07 20:32 | -24.85341 | -70.56507 | 29042 ft | 233 kts | 187° |
| 2026-05-07 20:33 | -24.86962 | -70.56646 | 29042 ft | 233 kts | 187° |
| 2026-05-07 20:33 | -24.88580 | -70.56784 | 29041 ft | 233 kts | 187° |
| 2026-05-07 20:33 | -24.90200 | -70.56923 | 29041 ft | 233 kts | 187° |
| 2026-05-07 20:33 | -24.91815 | -70.57062 | 29041 ft | 233 kts | 187° |
| 2026-05-07 20:34 | -24.93433 | -70.57201 | 29041 ft | 233 kts | 187° |
| 2026-05-07 20:34 | -24.95049 | -70.57339 | 29055 ft | 233 kts | 187° |
| 2026-05-07 20:34 | -24.96668 | -70.57478 | 29048 ft | 233 kts | 187° |
| 2026-05-07 20:34 | -24.98283 | -70.57617 | 29049 ft | 233 kts | 188° |
| 2026-05-07 20:35 | -24.99876 | -70.57754 | 29049 ft | 233 kts | 188° |
| 2026-05-07 20:35 | -25.01490 | -70.57892 | 29048 ft | 233 kts | 188° |
| 2026-05-07 20:35 | -25.03103 | -70.58031 | 29048 ft | 232 kts | 188° |
| 2026-05-07 20:35 | -25.04716 | -70.58170 | 29048 ft | 232 kts | 188° |
| 2026-05-07 20:36 | -25.06328 | -70.58308 | 29048 ft | 232 kts | 188° |
| 2026-05-07 20:36 | -25.07940 | -70.58447 | 29048 ft | 232 kts | 188° |
| 2026-05-07 20:36 | -25.09550 | -70.58585 | 29048 ft | 232 kts | 188° |
| 2026-05-07 20:36 | -25.11163 | -70.58724 | 29045 ft | 232 kts | 187° |
| 2026-05-07 20:37 | -25.12774 | -70.58863 | 29045 ft | 232 kts | 187° |
| 2026-05-07 20:37 | -25.14386 | -70.59001 | 29045 ft | 232 kts | 188° |
| 2026-05-07 20:37 | -25.15999 | -70.59140 | 29045 ft | 232 kts | 188° |
| 2026-05-07 20:37 | -25.17610 | -70.59279 | 29045 ft | 232 kts | 188° |
| 2026-05-07 20:38 | -25.19222 | -70.59418 | 29045 ft | 232 kts | 188° |
| 2026-05-07 20:38 | -25.20835 | -70.59557 | 29045 ft | 232 kts | 187° |
| 2026-05-07 20:38 | -25.22447 | -70.59696 | 29046 ft | 232 kts | 188° |
| 2026-05-07 20:38 | -25.24058 | -70.59835 | 29043 ft | 232 kts | 188° |
| 2026-05-07 20:39 | -25.25673 | -70.59974 | 29043 ft | 233 kts | 188° |
| 2026-05-07 20:39 | -25.27288 | -70.60114 | 29044 ft | 233 kts | 188° |
| 2026-05-07 20:39 | -25.28901 | -70.60252 | 29044 ft | 232 kts | 188° |
| 2026-05-07 20:39 | -25.30510 | -70.60391 | 29045 ft | 232 kts | 188° |
| 2026-05-07 20:40 | -25.32120 | -70.60530 | 29039 ft | 232 kts | 188° |
| 2026-05-07 20:40 | -25.33726 | -70.60669 | 29038 ft | 232 kts | 188° |
| 2026-05-07 20:40 | -25.35334 | -70.60808 | 29038 ft | 232 kts | 188° |
| 2026-05-07 20:40 | -25.36939 | -70.60947 | 29038 ft | 231 kts | 188° |
| 2026-05-07 20:41 | -25.38546 | -70.61086 | 29038 ft | 231 kts | 188° |
| 2026-05-07 20:41 | -25.40151 | -70.61224 | 29038 ft | 231 kts | 188° |
| 2026-05-07 20:41 | -25.41754 | -70.61363 | 29037 ft | 231 kts | 188° |
| 2026-05-07 20:41 | -25.43360 | -70.61502 | 29039 ft | 231 kts | 188° |
| 2026-05-07 20:42 | -25.44964 | -70.61641 | 29039 ft | 231 kts | 188° |
| 2026-05-07 20:42 | -25.46548 | -70.61778 | 29039 ft | 231 kts | 188° |
| 2026-05-07 20:42 | -25.48151 | -70.61918 | 29039 ft | 231 kts | 188° |
| 2026-05-07 20:42 | -25.49756 | -70.62057 | 29036 ft | 231 kts | 188° |
| 2026-05-07 20:43 | -25.51362 | -70.62196 | 29033 ft | 232 kts | 188° |
| 2026-05-07 20:43 | -25.52969 | -70.62336 | 29035 ft | 232 kts | 188° |
| 2026-05-07 20:43 | -25.54578 | -70.62475 | 29039 ft | 232 kts | 188° |
| 2026-05-07 20:43 | -25.56190 | -70.62616 | 29038 ft | 233 kts | 188° |
| 2026-05-07 20:44 | -25.57806 | -70.62756 | 29039 ft | 233 kts | 188° |
| 2026-05-07 20:44 | -25.59419 | -70.62896 | 29038 ft | 232 kts | 188° |
| 2026-05-07 20:44 | -25.61028 | -70.63036 | 29037 ft | 232 kts | 188° |
| 2026-05-07 20:44 | -25.62639 | -70.63176 | 29037 ft | 232 kts | 188° |
| 2026-05-07 20:45 | -25.64256 | -70.63318 | 28890 ft | 237 kts | 188° |
| 2026-05-07 20:45 | -25.65884 | -70.63459 | 28493 ft | 234 kts | 188° |
| 2026-05-07 20:45 | -25.67507 | -70.63600 | 28106 ft | 234 kts | 188° |
| 2026-05-07 20:45 | -25.69131 | -70.63742 | 27724 ft | 234 kts | 188° |
| 2026-05-07 20:46 | -25.70751 | -70.63883 | 27349 ft | 234 kts | 188° |
| 2026-05-07 20:46 | -25.72374 | -70.64024 | 26982 ft | 234 kts | 188° |
| 2026-05-07 20:46 | -25.74002 | -70.64166 | 26620 ft | 235 kts | 188° |
| 2026-05-07 20:46 | -25.75636 | -70.64309 | 26262 ft | 236 kts | 188° |
| 2026-05-07 20:47 | -25.77276 | -70.64452 | 25908 ft | 237 kts | 189° |
| 2026-05-07 20:47 | -25.78918 | -70.64595 | 25555 ft | 237 kts | 189° |
| 2026-05-07 20:47 | -25.80566 | -70.64739 | 25214 ft | 238 kts | 189° |
| 2026-05-07 20:47 | -25.82195 | -70.64881 | 24878 ft | 238 kts | 189° |
| 2026-05-07 20:48 | -25.83849 | -70.65026 | 24542 ft | 239 kts | 189° |
| 2026-05-07 20:48 | -25.85509 | -70.65170 | 24218 ft | 239 kts | 189° |
| 2026-05-07 20:48 | -25.87163 | -70.65315 | 23885 ft | 239 kts | 189° |
| 2026-05-07 20:48 | -25.88817 | -70.65459 | 23552 ft | 238 kts | 189° |
| 2026-05-07 20:49 | -25.90473 | -70.65604 | 23157 ft | 238 kts | 189° |
| 2026-05-07 20:49 | -25.92130 | -70.65749 | 22773 ft | 239 kts | 189° |
| 2026-05-07 20:49 | -25.93790 | -70.65894 | 22394 ft | 240 kts | 189° |
| 2026-05-07 20:49 | -25.95453 | -70.66040 | 22019 ft | 240 kts | 189° |
| 2026-05-07 20:50 | -25.97116 | -70.66185 | 21647 ft | 240 kts | 189° |
| 2026-05-07 20:50 | -25.98780 | -70.66331 | 21280 ft | 240 kts | 189° |
| 2026-05-07 20:50 | -26.00444 | -70.66477 | 20919 ft | 240 kts | 189° |
| 2026-05-07 20:50 | -26.02111 | -70.66623 | 20559 ft | 240 kts | 189° |
| 2026-05-07 20:51 | -26.03781 | -70.66769 | 20201 ft | 241 kts | 189° |
| 2026-05-07 20:51 | -26.05449 | -70.66915 | 19853 ft | 241 kts | 189° |
| 2026-05-07 20:51 | -26.07097 | -70.67058 | 19507 ft | 233 kts | 189° |
| 2026-05-07 20:51 | -26.08682 | -70.67195 | 19156 ft | 225 kts | 189° |
| 2026-05-07 20:52 | -26.10220 | -70.67331 | 18807 ft | 219 kts | 190° |
| 2026-05-07 20:52 | -26.11721 | -70.67463 | 18462 ft | 214 kts | 190° |
| 2026-05-07 20:52 | -26.13192 | -70.67593 | 18088 ft | 210 kts | 190° |
| 2026-05-07 20:52 | -26.14643 | -70.67721 | 17712 ft | 208 kts | 189° |
| 2026-05-07 20:53 | -26.16078 | -70.67847 | 17326 ft | 206 kts | 189° |
| 2026-05-07 20:53 | -26.17485 | -70.67970 | 16951 ft | 205 kts | 188° |
| 2026-05-07 20:53 | -26.18905 | -70.68096 | 16577 ft | 205 kts | 188° |
| 2026-05-07 20:53 | -26.20325 | -70.68220 | 16207 ft | 205 kts | 188° |
| 2026-05-07 20:54 | -26.21745 | -70.68345 | 15839 ft | 205 kts | 187° |
| 2026-05-07 20:54 | -26.23167 | -70.68470 | 15486 ft | 206 kts | 187° |
| 2026-05-07 20:54 | -26.24596 | -70.68596 | 15132 ft | 206 kts | 187° |
| 2026-05-07 20:54 | -26.26031 | -70.68722 | 14780 ft | 207 kts | 186° |
| 2026-05-07 20:55 | -26.27471 | -70.68849 | 14436 ft | 208 kts | 186° |
| 2026-05-07 20:55 | -26.28922 | -70.68977 | 14096 ft | 210 kts | 186° |
| 2026-05-07 20:55 | -26.30347 | -70.69101 | 14004 ft | 199 kts | 186° |
| 2026-05-07 20:55 | -26.31681 | -70.69218 | 13989 ft | 186 kts | 186° |
| 2026-05-07 20:56 | -26.32938 | -70.69329 | 13989 ft | 177 kts | 186° |
| 2026-05-07 20:56 | -26.34136 | -70.69434 | 13989 ft | 170 kts | 186° |
| 2026-05-07 20:56 | -26.35399 | -70.69547 | 14012 ft | 193 kts | 186° |
| 2026-05-07 20:56 | -26.36793 | -70.69671 | 14018 ft | 208 kts | 186° |
| 2026-05-07 20:57 | -26.38276 | -70.69801 | 14014 ft | 219 kts | 185° |
| 2026-05-07 20:57 | -26.39822 | -70.69937 | 14014 ft | 226 kts | 185° |
| 2026-05-07 20:57 | -26.41403 | -70.70076 | 14016 ft | 230 kts | 185° |
| 2026-05-07 20:57 | -26.43005 | -70.70217 | 14010 ft | 232 kts | 185° |
| 2026-05-07 20:58 | -26.44616 | -70.70359 | 14014 ft | 234 kts | 185° |
| 2026-05-07 20:58 | -26.46256 | -70.70503 | 14010 ft | 235 kts | 185° |
| 2026-05-07 20:58 | -26.47890 | -70.70647 | 14009 ft | 236 kts | 185° |
| 2026-05-07 20:58 | -26.48975 | -70.70742 | 14004 ft | 236 kts | 185° |
| 2026-05-07 20:59 | -26.50619 | -70.70887 | 13870 ft | 238 kts | 185° |
| 2026-05-07 20:59 | -26.52241 | -70.71029 | 13480 ft | 230 kts | 185° |
| 2026-05-07 20:59 | -26.53817 | -70.71168 | 13090 ft | 225 kts | 185° |
| 2026-05-07 20:59 | -26.55359 | -70.71304 | 12701 ft | 220 kts | 185° |
| 2026-05-07 21:00 | -26.57366 | -70.71480 | 12197 ft | 217 kts | 185° |
| 2026-05-07 21:00 | -26.58387 | -70.71571 | 11946 ft | 224 kts | 185° |
| 2026-05-07 21:00 | -26.59932 | -70.71707 | 11584 ft | 221 kts | 185° |
| 2026-05-07 21:00 | -26.61454 | -70.71841 | 11221 ft | 218 kts | 185° |
| 2026-05-07 21:01 | -26.62953 | -70.71973 | 10864 ft | 215 kts | 185° |
| 2026-05-07 21:01 | -26.64455 | -70.72106 | 10507 ft | 218 kts | 185° |
| 2026-05-07 21:01 | -26.65979 | -70.72241 | 10155 ft | 221 kts | 185° |
| 2026-05-07 21:01 | -26.67495 | -70.72375 | 9811 ft | 222 kts | 186° |
| 2026-05-07 21:02 | -26.69039 | -70.72511 | 9434 ft | 223 kts | 185° |
| 2026-05-07 21:02 | -26.70589 | -70.72648 | 9059 ft | 224 kts | 186° |
| 2026-05-07 21:02 | -26.72160 | -70.72787 | 8680 ft | 223 kts | 185° |
| 2026-05-07 21:02 | -26.73705 | -70.72925 | 8317 ft | 222 kts | 185° |
| 2026-05-07 21:03 | -26.75219 | -70.73058 | 7957 ft | 221 kts | 185° |
| 2026-05-07 21:03 | -26.76751 | -70.73194 | 7598 ft | 220 kts | 185° |
| 2026-05-07 21:03 | -26.78285 | -70.73330 | 7239 ft | 225 kts | 185° |
| 2026-05-07 21:03 | -26.79861 | -70.73470 | 7009 ft | 226 kts | 185° |
| 2026-05-07 21:04 | -26.81397 | -70.73605 | 7007 ft | 218 kts | 185° |
| 2026-05-07 21:04 | -26.82888 | -70.73737 | 7001 ft | 213 kts | 185° |
| 2026-05-07 21:04 | -26.84335 | -70.73969 | 6991 ft | 208 kts | 199° |
| 2026-05-07 21:04 | -26.85603 | -70.74707 | 6998 ft | 204 kts | 218° |
| 2026-05-07 21:05 | -26.86742 | -70.75672 | 6834 ft | 209 kts | 218° |
| 2026-05-07 21:05 | -26.87906 | -70.76647 | 6462 ft | 209 kts | 219° |
| 2026-05-07 21:05 | -26.89066 | -70.77619 | 6055 ft | 207 kts | 218° |
| 2026-05-07 21:05 | -26.90177 | -70.78551 | 6004 ft | 191 kts | 218° |
| 2026-05-07 21:06 | -26.91227 | -70.79434 | 5991 ft | 189 kts | 218° |
| 2026-05-07 21:06 | -26.92274 | -70.80296 | 5988 ft | 188 kts | 213° |
| 2026-05-07 21:06 | -26.93549 | -70.80787 | 5697 ft | 204 kts | 186° |
| 2026-05-07 21:06 | -26.94999 | -70.80727 | 5359 ft | 213 kts | 176° |
| 2026-05-07 21:07 | -26.96494 | -70.80577 | 5018 ft | 218 kts | 176° |
| 2026-05-07 21:07 | -26.98009 | -70.80435 | 4662 ft | 218 kts | 176° |
| 2026-05-07 21:07 | -26.99493 | -70.80302 | 4296 ft | 210 kts | 176° |
| 2026-05-07 21:07 | -27.00927 | -70.80175 | 4006 ft | 201 kts | 177° |
| 2026-05-07 21:08 | -27.02254 | -70.80055 | 3992 ft | 184 kts | 176° |
| 2026-05-07 21:08 | -27.03481 | -70.79945 | 3991 ft | 170 kts | 176° |
| 2026-05-07 21:08 | -27.04626 | -70.79842 | 3985 ft | 161 kts | 176° |
| 2026-05-07 21:08 | -27.05718 | -70.79745 | 3984 ft | 155 kts | 176° |
| 2026-05-07 21:09 | -27.06815 | -70.79647 | 3721 ft | 165 kts | 176° |
| 2026-05-07 21:09 | -27.07981 | -70.79544 | 3459 ft | 170 kts | 175° |
| 2026-05-07 21:09 | -27.09171 | -70.79438 | 3200 ft | 173 kts | 176° |
| 2026-05-07 21:09 | -27.10369 | -70.79331 | 2937 ft | 172 kts | 176° |
| 2026-05-07 21:10 | -27.11564 | -70.79225 | 2672 ft | 173 kts | 175° |
| 2026-05-07 21:10 | -27.12766 | -70.79117 | 2409 ft | 174 kts | 175° |
| 2026-05-07 21:10 | -27.13969 | -70.79010 | 2136 ft | 173 kts | 176° |
| 2026-05-07 21:10 | -27.15151 | -70.78904 | 2001 ft | 166 kts | 176° |
| 2026-05-07 21:11 | -27.16289 | -70.78813 | 1995 ft | 162 kts | 176° |
| 2026-05-07 21:11 | -27.17375 | -70.78721 | 1987 ft | 147 kts | 175° |
| 2026-05-07 21:11 | -27.19191 | -70.78554 | 1827 ft | 127 kts | 176° |
| 2026-05-07 21:12 | -27.20065 | -70.78473 | 1660 ft | 124 kts | 176° |
| 2026-05-07 21:12 | -27.20908 | -70.78397 | 1489 ft | 119 kts | 177° |
| 2026-05-07 21:12 | -27.21694 | -70.78326 | 1344 ft | 104 kts | 177° |
| 2026-05-07 21:12 | -27.22416 | -70.78259 | 1206 ft | 109 kts | 178° |
| 2026-05-07 21:13 | -27.23181 | -70.78189 | 1060 ft | 110 kts | 178° |
| 2026-05-07 21:13 | -27.23912 | -70.78127 | 911 ft | 102 kts | 179° |
| 2026-05-07 21:13 | -27.24619 | -70.78063 | 779 ft | 103 kts | 178° |
| 2026-05-07 21:13 | -27.25345 | -70.77997 | 650 ft | 102 kts | 179° |
| 2026-05-07 21:14 | -27.25934 | -70.77946 | 644 ft | 47 kts | 174° |
| 2026-05-07 21:14 | -27.26035 | -70.77928 | 646 ft | 7 kts | 155° |
| 2026-05-07 21:14 | -27.26072 | -70.77861 | 648 ft | 11 kts | 87° |
| 2026-05-07 21:14 | -27.26065 | -70.77755 | 648 ft | 13 kts | 84° |
| 2026-05-07 21:15 | -27.26061 | -70.77666 | 648 ft | 10 kts | 109° |
| 2026-05-07 21:15 | -27.26151 | -70.77632 | 650 ft | 18 kts | 176° |
| 2026-05-07 21:15 | -27.26272 | -70.77622 | 653 ft | 11 kts | 174° |
| 2026-05-07 21:15 | -27.26306 | -70.77600 | 654 ft | 8 kts | 81° |
| 2026-05-07 21:16 | -27.26302 | -70.77537 | 654 ft | 6 kts | 88° |
| 2026-05-07 21:16 | -27.26301 | -70.77524 | 654 ft | 0 kts | 88° |